Terminal Aerodrome Forecast
Issued by NWS

Home | Current Version | Previous Version | Text Only | Print | Product List | Glossary On
Versions: 1 2 3 4 5 6 7 8 9 10 11 12 13
000
FTUS42 TJSJ 190543
TAFKPK
TAF
TKPK 190543Z 1906/2006 08016KT 5SM HZ FEW018 SCT020
      TEMPO 1906/1910 3SM HZ BKN016
     FM191800 08014KT P6SM FEW016 SCT022
      AMD NOT SKED TIL 191100=

USA.gov is the U.S. government's official web portal to all federal, state and local government web resources and services.